Tempe, AZ

6:27 AM MST on August 24, 2016 (GMT -0700)
Meyer Park | | Change Station

Elev 1188 ft 33.40 °N, 111.91 °W | Updated 0 second ago

Partly Cloudy
Partly Cloudy
80.2 °F
Feels Like 81 °F
N
2.0
Wind Variable Wind from NE
Gusts 5.0 mph

Today
High -- | Low -- °F
--% Chance of Precip.
Yesterday
High -- | Low -- °F
Precip. -- in
Pressure 29.91 in
Visibility 10.0 miles
Clouds Few 18000 ft
Heat Index 81 °F
Dew Point 59 °F
Humidity 49%
Rainfall 0.00 in
Snow Depth Not available.
5:56 AM 7:02 PM
Waning Gibbous, 57% visible
METAR KPHX 241251Z 11003KT 10SM FEW180 27/16 A2997 RMK AO2 SLP128 T02670156
Pressure 29.91 in
Visibility 10.0 miles
Clouds Few 18000 ft
Heat Index 81 °F
Dew Point 59 °F
Humidity 49%
Rainfall 0.00 in
Snow Depth Not available.
5:56 AM 7:02 PM
Waning Gibbous, 57% visible
METAR KPHX 241251Z 11003KT 10SM FEW180 27/16 A2997 RMK AO2 SLP128 T02670156

10-Day Weather Forecast

Almanac

Astronomy

Aug. 24, 2016 Rise Set
Actual Time
Civil Twilight
Nautical Twilight
Astronomical Twilight
Moon
Length of Visible Light
Length of Day
Tomorrow will be .
, % of the Moon is Illuminated

Today's Extremes

State Highs State Lows

Community

WunderPhotos

Upload Photos

1,934,594 photos uploaded!

WunderBlog® & News

Nearby

Air Quality

  Air Quality AQ Index Pollutant
Not available.

Snow Depth

Station Depth Elevation

Earthquake Activity

City Distance Mag. Time & Date
Minimum magnitude displayed is 2.5.

Coastal Water Temperatures

Place Temperature

Stations

Nearby Weather Stations

Station Location Temp. Windchill Dew Point Humidity Wind Precip. Elev Updated Type
                   

Watches & Warnings

There are currently no watches in effect.